energytraining.it alexa rank chart, energytraining.it alexa rank daily changes

energytraining.it alexa rank chart, energytraining.it alexa rank daily changes

energytraining.it
Actual rank:
215 845

RANK HISTORY

Date Rank Diff
2017/01/16 215 845 -2 525
2017/01/15 218 370 +6 471
2017/01/14 211 899 +394
2017/01/13 211 505 +1 094
2017/01/12 210 411 -2 492
2017/01/11 212 903 +5 111
2017/01/10 207 792 +3 440
2017/01/09 204 352 -4 157
2017/01/08 208 509 +630
2017/01/07 207 879 -3 349
2017/01/06 211 228 +4 450
2017/01/05 206 778 -4 405
2017/01/04 211 183 -7 876
2017/01/03 219 059 +5 584
2017/01/02 213 475 -8 074
2017/01/01 221 549 +1 803
2016/12/31 219 746 +7 770
2016/12/30 211 976 +1 027
2016/12/29 210 949 +4 744
2016/12/28 206 205 +2 011
2016/12/27 204 194 +7 168
2016/12/26 197 026 -3 729
2016/12/25 200 755 -283
2016/12/24 201 038 -3 138
2016/12/23 204 176 -4 276
2016/12/22 208 452 +8 913
2016/12/21 199 539 -1 901
2016/12/20 201 440 +4 477
2016/12/19 196 963 -3 273
2016/12/18 200 236 +6 327
2016/12/17 193 909 +2 964
2016/12/16 190 945 +30
2016/12/15 190 915 +1 383
2016/12/14 189 532 +5 093
2016/12/13 184 439 -998
2016/12/12 185 437 +2 492
2016/12/11 182 945 -3 867
2016/12/10 186 812 -2 253
2016/12/09 189 065 -2 559
2016/12/08 191 624 -1 306
2016/12/07 192 930 +4 004
2016/12/06 188 926 -5 600
2016/12/05 194 526 +2 060
2016/12/04 192 466 -2 242
2016/12/02 194 708 +4 888
2016/12/01 189 820 -4 536
2016/11/30 194 356 +2 000
2016/11/29 192 356 -418
2016/11/28 192 774 +132
2016/11/27 192 642 -5 964
2016/11/26 198 606 -3 036
2016/11/25 201 642 -1 353
2016/11/24 202 995 -6 444
2016/11/23 209 439 -1 310
2016/11/19 210 749 +2 235
2016/11/18 208 514 -10 405
2016/11/17 218 919

WIDGET FOR YOUR SITE

DOMAINS WITH THE NEAREST RANK

Domain Rank
gpc.edu 215 840
zxhsd.com 215 841
krtr-art.com 215 842
fetan.ir 215 843
espacemanager.com 215 844
energytraining.it 215 845
allegro.cc 215 846
tickettw.com 215 847
rybolov-sportsmen.ru 215 848
divisionfieldguide.com 215 849
joyplot.com 215 850

DOMAINS WITH THE NEAREST RANK BY TLD .it

Domain Rank
fotografiaprofessionale.it 215 174
q8.it 215 712
torte.it 215 714
cittadelsole.it 215 767
riccardofranzese.it 215 770
energytraining.it 215 845
fisco7.it 215 924
birramia.it 216 011
riparteilfuturo.it 216 139
svapami.it 216 150
bpm.it 216 171